Current Weather

Long Island Mac Arthur

New York, New York (KISP)

Report from: Saturday, July 13, 2024 7:56 PM EDT
Current time: Saturday, July 13, 2024 9:02 PM EDT

Nearby weather – Weather history – Daily summaries
Weather forecast

Temperature24.4°C (75.9°F)
Dew point22.8°C (73.0°F)
Winds 6 kts (3.1 m/s, 6.9 mph) Southwest (220°)
Visibility10 mi. (16.1 km)
Clouds Scattered clouds 1,100 ft. (335 m)
Scattered clouds 3,000 ft. (914 m)
Ceiling: Broken clouds 25,000 ft. (7,620 m)
Altimeter30.08 in.Hg (1019 mB)
Relative humidity91 %
Density altitude1,286 ft. (392 m)
Sea-level pressure101.9 kPa (1019 mB, 30.08 in.Hg)
Max temp last 6 hours27.2°C (81.0°F)
Min temp last 6 hours24.4°C (75.9°F)
Remarks Automated weather observing station with precipitation discriminator
Pressure falling, then rising
Flight conditions Visual Meteorological Conditions
Raw dataKISP 132356Z 22006KT 10SM SCT011 SCT030 BKN250 24/23 A3008 RMK AO2 SLP185 T02440228 10272 20244 55002
An error has occurred. This application may no longer respond until reloaded. Reload 🗙